createdAt,value
2023-02-02T00:01:25.177Z,0.80
2023-02-02T00:03:53.036Z,0.84
2023-02-02T00:06:22.647Z,0.95
2023-02-02T00:08:50.071Z,0.91
2023-02-02T00:11:19.583Z,0.54
2023-02-02T00:13:47.388Z,0.84
2023-02-02T00:16:31.481Z,0.76
2023-02-02T00:19:01.890Z,0.88
2023-02-02T00:21:29.322Z,0.60
2023-02-02T00:23:56.776Z,0.32
2023-02-02T00:26:24.578Z,0.45
2023-02-02T00:28:52.905Z,0.30
2023-02-02T00:31:20.515Z,0.46
2023-02-02T00:33:49.383Z,0.46
2023-02-02T00:36:18.464Z,0.57
2023-02-02T00:38:46.451Z,0.41
2023-02-02T00:41:14.120Z,0.61
2023-02-02T00:43:41.586Z,0.25
2023-02-02T00:46:19.288Z,0.46
2023-02-02T00:48:46.918Z,0.27
2023-02-02T00:51:14.279Z,0.37
2023-02-02T00:53:41.732Z,0.32
2023-02-02T00:56:09.125Z,0.49
2023-02-02T00:58:36.743Z,0.53
2023-02-02T01:01:04.263Z,0.44
2023-02-02T01:03:31.951Z,0.76
2023-02-02T01:05:59.316Z,0.79
2023-02-02T01:08:26.766Z,0.71
2023-02-02T01:10:54.223Z,0.51
2023-02-02T01:13:23.089Z,0.38
2023-02-02T01:15:55.299Z,0.76
2023-02-02T01:18:22.860Z,0.44
2023-02-02T01:21:17.455Z,0.51
2023-02-02T01:23:45.247Z,0.26
2023-02-02T01:26:13.664Z,0.59
2023-02-02T01:28:41.712Z,0.78
2023-02-02T01:31:14.916Z,1.00
2023-02-02T01:33:44.051Z,0.93
2023-02-02T01:36:18.298Z,1.05
2023-02-02T01:38:46.219Z,1.03
2023-02-02T01:41:22.473Z,1.12
2023-02-02T01:43:56.527Z,1.32
2023-02-02T01:46:44.076Z,0.84
2023-02-02T01:49:16.145Z,0.91
2023-02-02T01:51:53.448Z,0.98
2023-02-02T01:54:38.863Z,1.00
2023-02-02T01:57:12.776Z,0.67
2023-02-02T01:59:43.119Z,0.51
2023-02-02T02:02:11.357Z,0.45
2023-02-02T02:04:39.136Z,0.57
2023-02-02T02:07:08.145Z,0.78
2023-02-02T02:09:37.171Z,0.46
2023-02-02T02:12:13.815Z,0.67
2023-02-02T02:15:05.995Z,1.05
2023-02-02T02:17:49.105Z,0.57
2023-02-02T02:20:44.222Z,0.77
2023-02-02T02:24:21.012Z,1.12
2023-02-02T02:27:13.333Z,1.15
2023-02-02T02:30:16.158Z,1.08
2023-02-02T02:33:04.000Z,1.26
2023-02-02T02:36:03.081Z,1.43
2023-02-02T02:38:36.936Z,0.95
2023-02-02T02:41:12.280Z,0.78
2023-02-02T02:43:43.957Z,0.90
2023-02-02T02:46:13.088Z,1.33
2023-02-02T02:48:45.305Z,1.54
2023-02-02T02:51:44.032Z,1.51
2023-02-02T02:54:20.225Z,1.46
2023-02-02T02:57:12.708Z,1.58
2023-02-02T03:00:02.199Z,1.38
2023-02-02T03:02:41.089Z,1.52
2023-02-02T03:05:44.515Z,1.30
2023-02-02T03:08:27.542Z,1.63
2023-02-02T03:10:58.132Z,1.66
2023-02-02T03:13:27.072Z,1.54
2023-02-02T03:15:54.731Z,1.59
2023-02-02T03:18:25.829Z,1.67
2023-02-02T03:20:53.327Z,1.16
2023-02-02T03:23:20.785Z,1.35
2023-02-02T03:25:48.723Z,1.19
2023-02-02T03:28:17.327Z,1.14
2023-02-02T03:30:46.626Z,1.10
2023-02-02T03:33:16.154Z,1.38
2023-02-02T03:35:43.731Z,1.27
2023-02-02T03:38:12.853Z,1.15
2023-02-02T03:40:41.353Z,1.23
2023-02-02T03:43:09.191Z,0.79
2023-02-02T03:45:37.574Z,1.17
2023-02-02T03:48:06.102Z,1.30
2023-02-02T03:50:33.658Z,1.58
2023-02-02T03:53:01.028Z,1.32
2023-02-02T03:55:28.615Z,1.22
2023-02-02T03:57:56.039Z,1.17
2023-02-02T04:00:23.649Z,1.35
2023-02-02T04:02:51.080Z,1.09
2023-02-02T04:05:18.940Z,1.19
2023-02-02T04:07:46.238Z,1.08
2023-02-02T04:10:13.663Z,1.10
2023-02-02T04:12:41.744Z,1.03
2023-02-02T04:15:09.491Z,0.96
2023-02-02T04:17:36.861Z,1.12
2023-02-02T04:20:06.080Z,0.80
2023-02-02T04:22:34.208Z,1.00
2023-02-02T04:25:01.832Z,1.22
2023-02-02T04:27:32.854Z,1.52
2023-02-02T04:30:00.593Z,1.61
2023-02-02T04:32:27.955Z,1.70
2023-02-02T04:34:55.398Z,1.83
2023-02-02T04:37:22.867Z,1.94
2023-02-02T04:39:51.039Z,2.05
2023-02-02T04:42:18.465Z,1.77
2023-02-02T04:44:46.412Z,1.68
2023-02-02T04:47:13.798Z,1.56
2023-02-02T04:49:41.310Z,1.43
2023-02-02T04:52:08.740Z,1.33
2023-02-02T04:54:36.275Z,1.47
2023-02-02T04:57:03.730Z,1.46
2023-02-02T04:59:31.300Z,1.60
2023-02-02T05:02:02.786Z,1.74
2023-02-02T05:04:30.411Z,1.63
2023-02-02T05:06:58.567Z,1.68
2023-02-02T05:09:26.380Z,1.70
2023-02-02T05:11:53.828Z,1.82
2023-02-02T05:14:21.430Z,2.01
2023-02-02T05:16:50.263Z,1.92
2023-02-02T05:19:17.836Z,2.00
2023-02-02T05:21:45.799Z,1.66
2023-02-02T05:24:13.254Z,1.82
2023-02-02T05:26:40.719Z,1.49
2023-02-02T05:29:09.488Z,1.53
2023-02-02T05:31:36.784Z,1.62
2023-02-02T05:34:05.227Z,1.80
2023-02-02T05:36:32.743Z,1.90
2023-02-02T05:39:00.787Z,1.90
2023-02-02T05:41:28.152Z,1.91
2023-02-02T05:43:55.562Z,1.77
2023-02-02T05:46:22.948Z,1.66
2023-02-02T05:48:50.497Z,1.57
2023-02-02T05:51:29.662Z,1.65
2023-02-02T05:53:58.430Z,1.64
2023-02-02T05:56:27.274Z,1.48
2023-02-02T05:58:54.752Z,1.75
2023-02-02T06:01:22.494Z,1.75
2023-02-02T06:03:50.198Z,2.04
2023-02-02T06:06:17.688Z,1.94
2023-02-02T06:08:45.186Z,1.78
2023-02-02T06:11:14.622Z,1.79
2023-02-02T06:13:45.829Z,1.76
2023-02-02T06:16:14.036Z,1.93
2023-02-02T06:18:41.571Z,2.04
2023-02-02T06:21:09.129Z,2.23
2023-02-02T06:23:36.774Z,1.85
2023-02-02T06:26:04.916Z,2.25
2023-02-02T06:28:32.468Z,2.17
2023-02-02T06:31:11.862Z,2.52
2023-02-02T06:33:40.725Z,2.55
2023-02-02T06:36:08.391Z,2.68
2023-02-02T06:38:35.983Z,2.30
2023-02-02T06:41:03.948Z,2.29
2023-02-02T06:43:31.574Z,2.46
2023-02-02T06:45:59.092Z,2.60
2023-02-02T06:48:27.289Z,2.51
2023-02-02T06:50:54.690Z,2.78
2023-02-02T06:53:25.098Z,2.46
2023-02-02T06:55:55.679Z,2.67
2023-02-02T06:58:23.431Z,2.88
2023-02-02T07:00:51.025Z,3.02
2023-02-02T07:03:21.555Z,3.12
2023-02-02T07:05:49.635Z,2.43
2023-02-02T07:08:17.429Z,2.40
2023-02-02T07:11:11.260Z,2.67
2023-02-02T07:13:33.967Z,2.88
2023-02-02T07:16:01.417Z,2.51
2023-02-02T07:18:28.904Z,2.28
2023-02-02T07:20:59.745Z,2.60
2023-02-02T07:23:31.327Z,2.31
2023-02-02T07:26:07.044Z,2.23
2023-02-02T07:28:35.114Z,2.23
2023-02-02T07:31:14.536Z,2.66
2023-02-02T07:33:43.739Z,2.85
2023-02-02T07:36:12.396Z,2.32
2023-02-02T07:38:39.881Z,2.77
2023-02-02T07:41:07.402Z,2.87
2023-02-02T07:43:34.903Z,2.48
2023-02-02T07:46:03.804Z,2.47
2023-02-02T07:48:31.548Z,2.81
2023-02-02T07:51:00.741Z,2.82
2023-02-02T07:53:28.939Z,2.67
2023-02-02T07:56:34.971Z,3.03
2023-02-02T07:59:02.581Z,3.07
2023-02-02T08:01:30.297Z,3.05
2023-02-02T08:04:00.813Z,3.13
2023-02-02T08:06:34.683Z,3.37
2023-02-02T08:09:03.779Z,3.14
2023-02-02T08:11:31.651Z,2.96
2023-02-02T08:14:01.623Z,3.06
2023-02-02T08:16:30.910Z,3.17
2023-02-02T08:18:58.493Z,3.55
2023-02-02T08:21:26.101Z,2.93
2023-02-02T08:23:54.064Z,3.05
2023-02-02T08:26:24.832Z,2.95
2023-02-02T08:28:55.212Z,3.09
2023-02-02T08:31:27.204Z,3.63
2023-02-02T08:33:55.279Z,3.89
2023-02-02T08:36:24.553Z,3.63
2023-02-02T08:38:52.893Z,3.63
2023-02-02T08:41:23.095Z,3.11
2023-02-02T08:43:51.266Z,3.40
2023-02-02T08:46:20.890Z,3.74
2023-02-02T08:48:49.071Z,3.76
2023-02-02T08:51:19.032Z,3.46
2023-02-02T08:53:47.051Z,3.54
2023-02-02T08:56:20.623Z,3.67
2023-02-02T08:58:53.837Z,3.27
2023-02-02T09:01:27.033Z,3.13
2023-02-02T09:03:59.693Z,3.04
2023-02-02T09:06:32.925Z,3.18
2023-02-02T09:09:01.359Z,3.17
2023-02-02T09:11:29.248Z,2.90
2023-02-02T09:13:59.209Z,3.31
2023-02-02T09:16:27.547Z,3.27
2023-02-02T09:18:56.567Z,3.18
2023-02-02T09:21:24.978Z,3.30
2023-02-02T09:23:54.012Z,3.25
2023-02-02T09:26:27.174Z,3.44
2023-02-02T09:29:02.705Z,3.72
2023-02-02T09:31:33.953Z,3.52
2023-02-02T09:34:03.442Z,3.46
2023-02-02T09:36:32.016Z,3.41
2023-02-02T09:38:59.414Z,3.32
2023-02-02T09:41:39.060Z,3.27
2023-02-02T09:44:25.818Z,3.37
2023-02-02T09:47:19.798Z,3.59
2023-02-02T09:49:59.450Z,3.76
2023-02-02T09:52:44.125Z,3.96
2023-02-02T09:55:38.211Z,3.73
2023-02-02T09:58:26.802Z,3.22
2023-02-02T10:01:14.874Z,3.38
2023-02-02T10:04:02.435Z,3.61
2023-02-02T10:06:40.463Z,3.61
2023-02-02T10:09:40.144Z,3.77
2023-02-02T10:12:34.279Z,4.15
2023-02-02T10:15:20.869Z,3.95
2023-02-02T10:18:07.089Z,4.02
2023-02-02T10:20:53.094Z,4.15
2023-02-02T10:23:42.013Z,4.26
2023-02-02T10:26:19.960Z,4.50
2023-02-02T10:29:14.967Z,4.92
2023-02-02T10:31:47.365Z,5.06
2023-02-02T10:34:33.237Z,5.09
2023-02-02T10:37:06.319Z,5.14
2023-02-02T10:39:52.244Z,5.23
2023-02-02T10:42:34.343Z,5.31
2023-02-02T10:45:14.780Z,5.20
2023-02-02T10:47:42.852Z,5.08
2023-02-02T10:50:13.307Z,5.16
2023-02-02T10:53:02.018Z,4.61
2023-02-02T10:55:39.295Z,4.61
2023-02-02T10:58:12.876Z,4.94
2023-02-02T11:01:04.979Z,5.05
2023-02-02T11:03:33.479Z,4.94
2023-02-02T11:06:21.182Z,4.51
2023-02-02T11:08:57.106Z,4.36
2023-02-02T11:11:35.141Z,4.80
2023-02-02T11:14:14.109Z,5.06
2023-02-02T11:16:44.531Z,5.25
2023-02-02T11:19:18.143Z,4.87
2023-02-02T11:21:48.658Z,4.60
2023-02-02T11:24:30.295Z,4.92
2023-02-02T11:27:23.823Z,5.00
2023-02-02T11:29:57.242Z,5.05
2023-02-02T11:32:34.307Z,4.55
2023-02-02T11:35:04.943Z,4.73
2023-02-02T11:37:36.296Z,4.82
2023-02-02T11:40:28.921Z,4.50
2023-02-02T11:42:59.555Z,4.71
2023-02-02T11:45:41.538Z,4.51
2023-02-02T11:48:20.647Z,4.82
2023-02-02T11:50:54.194Z,4.33
2023-02-02T11:53:31.720Z,4.43
2023-02-02T11:56:04.810Z,4.66
2023-02-02T11:58:49.659Z,4.20
2023-02-02T12:01:34.269Z,4.20
2023-02-02T12:04:25.805Z,4.21
2023-02-02T12:06:53.444Z,4.01
2023-02-02T12:09:25.853Z,4.04
2023-02-02T12:12:02.546Z,4.41
2023-02-02T12:14:59.842Z,4.60
2023-02-02T12:17:45.415Z,4.66
2023-02-02T12:20:47.043Z,4.87
2023-02-02T12:23:37.510Z,4.89
2023-02-02T12:26:29.092Z,4.72
2023-02-02T12:29:24.560Z,4.71
2023-02-02T12:32:01.334Z,4.78
2023-02-02T12:34:48.239Z,4.46
2023-02-02T12:37:45.900Z,4.15
2023-02-02T12:40:56.040Z,4.45
2023-02-02T12:43:42.523Z,4.60
2023-02-02T12:46:29.014Z,4.42
2023-02-02T12:49:19.635Z,4.48
2023-02-02T12:51:56.198Z,4.54
2023-02-02T12:54:34.998Z,4.19
2023-02-02T12:57:45.709Z,4.16
2023-02-02T13:00:35.554Z,4.39
2023-02-02T13:03:44.492Z,3.95
2023-02-02T13:06:30.014Z,4.25
2023-02-02T13:09:27.202Z,4.30
2023-02-02T13:12:01.381Z,4.35
2023-02-02T13:14:51.890Z,3.75
2023-02-02T13:17:27.643Z,3.71
2023-02-02T13:20:04.723Z,4.02
2023-02-02T13:22:42.465Z,4.11
2023-02-02T13:25:30.849Z,3.92
2023-02-02T13:28:02.498Z,3.59
2023-02-02T13:30:38.544Z,3.52
2023-02-02T13:33:16.228Z,3.62
2023-02-02T13:35:53.925Z,3.70
2023-02-02T13:38:26.864Z,3.79
2023-02-02T13:40:56.886Z,3.68
2023-02-02T13:44:16.060Z,3.83
2023-02-02T13:46:54.507Z,3.97
2023-02-02T13:49:40.988Z,4.20
2023-02-02T13:52:42.059Z,4.07
2023-02-02T13:55:30.916Z,3.80
2023-02-02T13:58:18.832Z,3.44
2023-02-02T14:00:53.386Z,3.69
2023-02-02T14:03:29.240Z,3.69
2023-02-02T14:06:10.318Z,3.72
2023-02-02T14:08:43.675Z,3.35
2023-02-02T14:11:28.272Z,3.45
2023-02-02T14:14:19.615Z,3.33
2023-02-02T14:16:50.158Z,3.22
2023-02-02T14:19:35.719Z,3.16
2023-02-02T14:22:10.728Z,3.35
2023-02-02T14:24:37.894Z,3.44
2023-02-02T14:27:08.951Z,3.39
2023-02-02T14:29:39.682Z,3.25
2023-02-02T14:32:07.237Z,3.26
2023-02-02T14:34:45.179Z,2.97
2023-02-02T14:37:24.807Z,2.87
2023-02-02T14:40:07.553Z,3.10
2023-02-02T14:43:41.616Z,2.87
2023-02-02T14:46:14.847Z,2.64
2023-02-02T14:48:44.520Z,2.63
2023-02-02T14:51:33.378Z,2.50
2023-02-02T14:54:05.299Z,2.77
2023-02-02T14:56:38.727Z,2.66
2023-02-02T14:59:08.020Z,2.28
2023-02-02T15:01:39.111Z,2.40
2023-02-02T15:04:22.043Z,2.66
2023-02-02T15:06:53.099Z,2.51
2023-02-02T15:09:20.563Z,2.51
2023-02-02T15:12:03.173Z,2.41
2023-02-02T15:15:04.498Z,2.47
2023-02-02T15:17:48.983Z,2.80
2023-02-02T15:20:37.273Z,2.72
2023-02-02T15:23:17.687Z,2.51
2023-02-02T15:25:54.400Z,2.46
2023-02-02T15:28:52.662Z,2.34
2023-02-02T15:31:29.085Z,2.21
2023-02-02T15:34:01.561Z,2.38
2023-02-02T15:36:35.967Z,2.60
2023-02-02T15:39:29.029Z,2.65
2023-02-02T15:42:17.512Z,2.49
2023-02-02T15:44:46.023Z,2.29
2023-02-02T15:47:18.628Z,2.64
2023-02-02T15:49:46.556Z,2.78
2023-02-02T15:52:17.461Z,2.79
2023-02-02T15:54:52.074Z,2.61
2023-02-02T15:57:38.507Z,2.55
2023-02-02T16:00:26.453Z,2.61
2023-02-02T16:03:05.072Z,2.56
2023-02-02T16:05:32.432Z,2.55
2023-02-02T16:08:05.953Z,2.48
2023-02-02T16:10:35.752Z,2.60
2023-02-02T16:13:04.002Z,2.26
2023-02-02T16:15:33.053Z,2.43
2023-02-02T16:18:02.709Z,2.46
2023-02-02T16:20:33.627Z,2.36
2023-02-02T16:23:06.298Z,2.30
2023-02-02T16:25:44.985Z,2.25
2023-02-02T16:28:18.848Z,2.47
2023-02-02T16:30:46.562Z,2.16
2023-02-02T16:33:33.859Z,2.23
2023-02-02T16:36:04.352Z,2.20
2023-02-02T16:38:37.592Z,2.49
2023-02-02T16:41:13.817Z,2.52
2023-02-02T16:43:42.858Z,2.60
2023-02-02T16:46:15.551Z,2.41
2023-02-02T16:48:57.443Z,2.40
2023-02-02T16:51:30.781Z,2.30
2023-02-02T16:54:14.509Z,2.50
2023-02-02T16:56:45.419Z,2.30
2023-02-02T16:59:15.743Z,2.49
2023-02-02T17:01:51.176Z,2.70
2023-02-02T17:04:34.415Z,2.65
2023-02-02T17:07:13.592Z,2.49
2023-02-02T17:09:43.664Z,2.71
2023-02-02T17:12:32.182Z,2.67
2023-02-02T17:15:34.477Z,2.46
2023-02-02T17:18:04.380Z,2.21
2023-02-02T17:20:34.788Z,2.24
2023-02-02T17:23:07.111Z,2.36
2023-02-02T17:25:42.881Z,2.26
2023-02-02T17:28:12.775Z,2.22
2023-02-02T17:30:42.158Z,2.23
2023-02-02T17:33:17.582Z,2.45
2023-02-02T17:35:56.084Z,2.75
2023-02-02T17:38:25.207Z,2.82
2023-02-02T17:40:53.658Z,2.79
2023-02-02T17:43:21.699Z,2.89
2023-02-02T17:45:49.583Z,2.61
2023-02-02T17:48:17.404Z,2.71
2023-02-02T17:50:45.602Z,2.71
2023-02-02T17:53:18.772Z,2.70
2023-02-02T17:55:47.773Z,2.84
2023-02-02T17:58:17.778Z,2.79
2023-02-02T18:00:53.465Z,2.74
2023-02-02T18:03:27.988Z,2.66
2023-02-02T18:05:57.869Z,2.58
2023-02-02T18:08:25.486Z,2.36
2023-02-02T18:10:52.850Z,2.42
2023-02-02T18:13:22.487Z,2.42
2023-02-02T18:15:51.030Z,2.56
2023-02-02T18:18:18.165Z,2.30
2023-02-02T18:20:48.316Z,2.24
2023-02-02T18:23:17.453Z,2.16
2023-02-02T18:25:44.991Z,2.36
2023-02-02T18:28:16.588Z,2.46
2023-02-02T18:30:45.043Z,2.39
2023-02-02T18:33:13.885Z,2.33
2023-02-02T18:35:42.801Z,1.86
2023-02-02T18:38:10.743Z,1.98
2023-02-02T18:40:38.657Z,2.17
2023-02-02T18:43:06.504Z,1.86
2023-02-02T18:45:33.974Z,1.74
2023-02-02T18:48:01.358Z,1.87
2023-02-02T18:50:28.953Z,1.97
2023-02-02T18:52:57.024Z,1.90
2023-02-02T18:55:24.812Z,2.23
2023-02-02T18:57:52.955Z,2.36
2023-02-02T19:00:22.279Z,2.27
2023-02-02T19:02:49.680Z,2.29
2023-02-02T19:05:36.026Z,2.27
2023-02-02T19:08:04.277Z,2.29
2023-02-02T19:10:31.865Z,2.43
2023-02-02T19:13:14.471Z,2.48
2023-02-02T19:15:42.654Z,2.01
2023-02-02T19:18:24.717Z,2.20
2023-02-02T19:20:53.295Z,2.21
2023-02-02T19:23:23.863Z,1.99
2023-02-02T19:25:56.822Z,2.06
2023-02-02T19:28:30.030Z,1.87
2023-02-02T19:31:00.454Z,1.63
2023-02-02T19:33:43.858Z,1.48
2023-02-02T19:36:20.070Z,1.84
2023-02-02T19:38:48.956Z,1.97
2023-02-02T19:41:25.424Z,1.87
2023-02-02T19:43:58.794Z,1.87
2023-02-02T19:46:28.265Z,1.70
2023-02-02T19:49:13.699Z,1.96
2023-02-02T19:51:45.823Z,2.11
2023-02-02T19:54:24.779Z,1.83
2023-02-02T19:57:10.905Z,1.89
2023-02-02T19:59:38.442Z,1.93
2023-02-02T20:02:42.061Z,1.70
2023-02-02T20:05:12.948Z,1.68
2023-02-02T20:07:40.455Z,1.85
2023-02-02T20:10:19.396Z,1.70
2023-02-02T20:12:47.023Z,1.83
2023-02-02T20:15:35.045Z,1.96
2023-02-02T20:18:11.177Z,1.64
2023-02-02T20:20:41.073Z,1.74
2023-02-02T20:23:43.067Z,1.85
2023-02-02T20:26:21.000Z,1.99
2023-02-02T20:28:49.444Z,1.97
2023-02-02T20:31:19.023Z,2.04
2023-02-02T20:33:57.968Z,1.86
2023-02-02T20:36:39.667Z,1.99
2023-02-02T20:39:16.286Z,1.62
2023-02-02T20:41:44.161Z,1.21
2023-02-02T20:44:12.214Z,1.43
2023-02-02T20:46:39.846Z,1.27
2023-02-02T20:49:07.463Z,1.51
2023-02-02T20:51:35.139Z,1.52
2023-02-02T20:54:02.701Z,1.58
2023-02-02T20:56:30.181Z,1.38
2023-02-02T20:58:57.566Z,1.44
2023-02-02T21:01:26.454Z,1.26
2023-02-02T21:03:54.003Z,1.37
2023-02-02T21:06:21.479Z,1.56
2023-02-02T21:08:52.663Z,1.46
2023-02-02T21:11:20.455Z,1.27
2023-02-02T21:13:48.668Z,1.54
2023-02-02T21:16:16.467Z,1.62
2023-02-02T21:18:47.405Z,1.80
2023-02-02T21:21:16.612Z,2.11
2023-02-02T21:23:48.834Z,2.25
2023-02-02T21:28:51.787Z,2.37
2023-02-02T21:31:19.706Z,2.24
2023-02-02T21:33:50.132Z,1.84
2023-02-02T21:36:21.085Z,1.89
2023-02-02T21:38:48.622Z,1.60
2023-02-02T21:41:16.630Z,1.68
2023-02-02T21:43:44.006Z,1.64
2023-02-02T21:46:29.590Z,1.47
2023-02-02T21:48:57.088Z,1.79
2023-02-02T21:51:29.136Z,1.97
2023-02-02T21:53:58.121Z,2.14
2023-02-02T21:56:36.576Z,2.04
2023-02-02T21:59:16.732Z,1.85
2023-02-02T22:01:45.255Z,1.63
2023-02-02T22:04:18.314Z,1.49
2023-02-02T22:06:48.273Z,1.75
2023-02-02T22:09:24.603Z,2.09
2023-02-02T22:11:56.921Z,2.15
2023-02-02T22:14:37.355Z,2.32
2023-02-02T22:17:25.813Z,1.98
2023-02-02T22:20:01.555Z,1.78
2023-02-02T22:22:35.722Z,1.93
2023-02-02T22:25:16.613Z,2.14
2023-02-02T22:27:51.480Z,2.21
2023-02-02T22:30:34.107Z,2.21
2023-02-02T22:33:01.695Z,2.21
2023-02-02T22:35:29.339Z,2.29
2023-02-02T22:37:56.802Z,2.39
2023-02-02T22:40:25.183Z,2.43
2023-02-02T22:42:55.520Z,2.49
2023-02-02T22:45:23.481Z,2.33
2023-02-02T22:47:51.544Z,2.43
2023-02-02T22:50:22.802Z,2.27
2023-02-02T22:52:50.686Z,2.27
2023-02-02T22:55:18.623Z,2.36
2023-02-02T22:57:46.278Z,2.28
2023-02-02T23:00:23.426Z,2.42
2023-02-02T23:02:51.426Z,2.31
2023-02-02T23:05:20.299Z,2.39
2023-02-02T23:07:49.208Z,2.32
2023-02-02T23:10:19.672Z,2.56
2023-02-02T23:12:48.442Z,2.68
2023-02-02T23:15:16.229Z,2.77
2023-02-02T23:17:43.735Z,2.80
2023-02-02T23:20:14.581Z,2.75
2023-02-02T23:22:42.039Z,2.77
2023-02-02T23:25:10.773Z,2.77
2023-02-02T23:27:38.513Z,2.80
2023-02-02T23:30:07.805Z,2.75
2023-02-02T23:32:36.159Z,2.72
2023-02-02T23:35:04.056Z,2.65
2023-02-02T23:37:32.119Z,2.65
2023-02-02T23:39:59.560Z,2.65
2023-02-02T23:42:27.225Z,2.58
2023-02-02T23:44:54.518Z,2.57
2023-02-02T23:47:22.152Z,2.55
2023-02-02T23:49:49.480Z,2.50
2023-02-02T23:52:17.317Z,2.55
2023-02-02T23:54:45.213Z,2.50
2023-02-02T23:57:12.706Z,2.48
2023-02-02T23:59:40.082Z,2.39
